Time;durP1;ratioP1;P1;durP2;ratioP2;P2;SDS_P1;SDS_P2;PMS_P1;PMS_P2;Temp;Humidity;BMP_temperature;BMP_pressure;BME280_temperature;BME280_humidity;BME280_pressure;Samples;Min_cycle;Max_cycle;Signal;HPM_P1;HPM_P2
2023/06/04 00:00:05;;;;;;;2.35;1.33;;;14.90;55.50;;;;;;5033490;28;20021;-67
2023/06/04 00:02:31;;;;;;;3.05;1.30;;;14.90;54.80;;;;;;5032709;28;20029;-68
2023/06/04 00:04:56;;;;;;;3.30;1.10;;;14.90;55.90;;;;;;5031583;28;20041;-68
2023/06/04 00:07:22;;;;;;;5.00;1.30;;;14.80;55.80;;;;;;5032520;28;20041;-70
2023/06/04 00:09:48;;;;;;;4.40;1.25;;;14.80;56.00;;;;;;5032797;28;20099;-69
2023/06/04 00:12:14;;;;;;;4.10;1.45;;;14.70;56.20;;;;;;5033268;28;20025;-69
2023/06/04 00:14:40;;;;;;;3.63;1.30;;;14.70;56.30;;;;;;5032556;28;20037;-69
2023/06/04 00:17:08;;;;;;;4.03;1.38;;;14.60;56.80;;;;;;5032681;28;20057;-69
2023/06/04 00:19:34;;;;;;;1.95;1.15;;;14.70;56.60;;;;;;5032504;28;20113;-68
2023/06/04 00:22:00;;;;;;;2.67;1.17;;;14.70;56.60;;;;;;5032232;28;20128;-67
2023/06/04 00:24:25;;;;;;;3.80;1.08;;;14.60;56.90;;;;;;5032792;28;20030;-67
2023/06/04 00:26:51;;;;;;;3.40;1.35;;;14.50;57.10;;;;;;5031069;28;20033;-67
2023/06/04 00:29:16;;;;;;;6.10;1.20;;;14.50;57.40;;;;;;5031934;28;20027;-67
2023/06/04 00:31:42;;;;;;;1.85;1.00;;;14.40;57.60;;;;;;5032111;28;20040;-67
2023/06/04 00:34:08;;;;;;;3.25;1.80;;;14.30;57.70;;;;;;5032238;28;20363;-68
2023/06/04 00:36:33;;;;;;;2.67;1.05;;;14.30;57.70;;;;;;5031656;28;20032;-67
2023/06/04 00:38:59;;;;;;;3.28;1.35;;;14.20;58.20;;;;;;5031857;28;20076;-69
2023/06/04 00:41:26;;;;;;;2.67;1.20;;;14.10;58.60;;;;;;5031921;28;20044;-69
2023/06/04 00:44:01;;;;;;;4.90;1.23;;;14.00;58.90;;;;;;5030704;28;20056;-68
2023/06/04 00:46:27;;;;;;;4.05;1.20;;;14.00;59.00;;;;;;5031899;28;20463;-69
2023/06/04 00:48:54;;;;;;;4.40;1.02;;;14.10;58.70;;;;;;5032092;28;20072;-68
2023/06/04 00:51:21;;;;;;;1.83;1.00;;;14.00;58.90;;;;;;5032133;28;20033;-69
2023/06/04 00:53:49;;;;;;;5.32;1.10;;;14.10;58.90;;;;;;5031714;28;20498;-69
2023/06/04 00:56:14;;;;;;;2.00;0.98;;;14.10;59.00;;;;;;5031631;28;20033;-69
2023/06/04 00:58:42;;;;;;;3.28;1.13;;;14.00;59.40;;;;;;5030351;28;20136;-69
2023/06/04 01:01:19;;;;;;;2.67;1.10;;;14.10;59.20;;;;;;5030615;28;20030;-69
2023/06/04 01:03:49;;;;;;;3.70;1.13;;;14.00;59.60;;;;;;5031529;28;20511;-69
2023/06/04 01:06:33;;;;;;;4.18;0.95;;;14.00;59.40;;;;;;5030721;28;20029;-69
2023/06/04 01:09:00;;;;;;;2.13;0.88;;;13.90;59.70;;;;;;5031297;28;20034;-70
2023/06/04 01:11:34;;;;;;;1.92;1.05;;;13.80;60.00;;;;;;5030205;28;20363;-69
2023/06/04 01:14:01;;;;;;;7.07;1.23;;;13.80;60.50;;;;;;5031517;28;20038;-70
2023/06/04 01:16:32;;;;;;;4.97;1.55;;;13.70;60.70;;;;;;5031182;28;20030;-69
2023/06/04 01:19:02;;;;;;;5.05;1.70;;;13.70;61.00;;;;;;5031100;28;20072;-68
2023/06/04 01:21:35;;;;;;;6.03;2.20;;;13.70;61.20;;;;;;5030544;28;20056;-69
2023/06/04 01:24:04;;;;;;;5.57;3.10;;;13.80;61.50;;;;;;5031137;28;20472;-69
2023/06/04 01:26:31;;;;;;;12.23;3.58;;;13.70;61.50;;;;;;5031073;28;20476;-69
2023/06/04 01:29:01;;;;;;;8.15;3.95;;;13.80;61.70;;;;;;5030907;28;20079;-69
2023/06/04 01:31:28;;;;;;;10.45;5.10;;;13.80;61.80;;;;;;5030916;28;20459;-69
2023/06/04 01:33:57;;;;;;;18.92;6.53;;;13.70;62.00;;;;;;5030903;28;20040;-69
2023/06/04 01:36:23;;;;;;;19.25;7.75;;;13.60;62.90;;;;;;5043469;28;20020;-69
2023/06/04 01:38:50;;;;;;;21.33;8.32;;;13.60;62.90;;;;;;5050628;28;20075;-69
2023/06/04 01:41:16;;;;;;;20.52;8.55;;;13.50;62.90;;;;;;5050657;28;20379;-68
2023/06/04 01:43:41;;;;;;;17.95;8.85;;;13.50;63.30;;;;;;5050503;28;20039;-69
2023/06/04 01:46:07;;;;;;;24.63;9.63;;;13.60;63.00;;;;;;5050506;28;20040;-69
2023/06/04 01:48:33;;;;;;;19.83;9.65;;;13.50;63.60;;;;;;5050719;28;20024;-69
2023/06/04 01:51:00;;;;;;;18.73;9.55;;;13.40;63.80;;;;;;5050485;28;20033;-69
2023/06/04 01:53:26;;;;;;;16.70;9.10;;;13.30;64.20;;;;;;5050509;28;20057;-68
2023/06/04 01:55:52;;;;;;;22.00;10.70;;;13.30;64.20;;;;;;5050583;28;20100;-69
2023/06/04 01:58:22;;;;;;;21.98;10.43;;;13.30;64.30;;;;;;5050286;28;20040;-68
2023/06/04 02:00:49;;;;;;;24.67;11.02;;;13.20;64.50;;;;;;5050275;28;20025;-67
2023/06/04 02:03:15;;;;;;;27.38;9.65;;;13.10;64.70;;;;;;5050829;28;20375;-68
2023/06/04 02:05:44;;;;;;;19.73;8.75;;;13.10;64.90;;;;;;5050366;28;20032;-70
2023/06/04 02:08:11;;;;;;;19.25;9.05;;;13.00;65.10;;;;;;5050245;28;20033;-70
2023/06/04 02:10:36;;;;;;;21.05;9.77;;;13.00;65.30;;;;;;5049188;28;20422;-69
2023/06/04 02:13:03;;;;;;;22.33;9.13;;;12.90;65.40;;;;;;5050281;28;20037;-69
2023/06/04 02:15:30;;;;;;;19.92;7.93;;;12.90;65.70;;;;;;5050880;28;20079;-68
2023/06/04 02:17:58;;;;;;;13.30;6.35;;;13.00;65.90;;;;;;5050019;28;20033;-70
2023/06/04 02:20:28;;;;;;;15.90;6.47;;;12.90;65.90;;;;;;5050441;28;20490;-70
2023/06/04 02:22:55;;;;;;;14.43;6.45;;;13.00;66.20;;;;;;5048930;28;20033;-69
2023/06/04 02:25:21;;;;;;;12.45;6.45;;;12.90;66.30;;;;;;5050117;28;20112;-70
2023/06/04 02:27:47;;;;;;;13.90;5.88;;;12.90;66.60;;;;;;5050106;28;20024;-69
2023/06/04 02:30:12;;;;;;;14.27;5.85;;;12.90;66.90;;;;;;5049904;28;20063;-69
2023/06/04 02:32:39;;;;;;;16.13;5.80;;;12.90;67.00;;;;;;5049314;28;20218;-70
2023/06/04 02:35:05;;;;;;;10.90;4.88;;;12.80;67.00;;;;;;5049156;28;20052;-70
2023/06/04 02:37:30;;;;;;;13.35;5.75;;;12.80;67.60;;;;;;5049294;28;20382;-70
2023/06/04 02:39:56;;;;;;;13.25;5.70;;;12.80;68.00;;;;;;5049023;28;20029;-70
2023/06/04 02:42:21;;;;;;;13.60;5.15;;;12.80;67.60;;;;;;5049555;28;20071;-70
2023/06/04 02:44:47;;;;;;;8.43;4.60;;;12.80;68.00;;;;;;5049024;28;20425;-70
2023/06/04 02:47:13;;;;;;;14.45;5.70;;;12.80;68.40;;;;;;5049270;28;20053;-70
2023/06/04 02:49:38;;;;;;;11.77;5.20;;;12.70;68.50;;;;;;5049020;28;20068;-70
2023/06/04 02:52:04;;;;;;;9.30;4.15;;;12.70;69.00;;;;;;5049121;28;20068;-70
2023/06/04 02:54:30;;;;;;;16.05;4.82;;;12.70;68.70;;;;;;5048342;28;20033;-69
2023/06/04 02:56:56;;;;;;;16.65;5.13;;;12.70;68.80;;;;;;5049220;28;20041;-69
2023/06/04 02:59:22;;;;;;;12.85;4.38;;;12.70;69.10;;;;;;5049087;28;20017;-69
2023/06/04 03:01:48;;;;;;;11.88;4.43;;;12.70;69.80;;;;;;5051967;28;20450;-69
2023/06/04 03:04:15;;;;;;;9.30;3.85;;;12.60;70.30;;;;;;5052170;28;20036;-70
2023/06/04 03:06:44;;;;;;;7.97;4.10;;;12.60;70.70;;;;;;5052097;28;20042;-70
2023/06/04 03:09:11;;;;;;;6.38;3.47;;;12.50;71.00;;;;;;5052763;28;20455;-70
2023/06/04 03:11:37;;;;;;;14.93;4.28;;;12.50;71.30;;;;;;5052281;28;20044;-70
2023/06/04 03:14:02;;;;;;;9.50;3.97;;;12.50;71.90;;;;;;5052117;28;20065;-71
2023/06/04 03:16:28;;;;;;;6.75;3.60;;;12.60;71.70;;;;;;5052149;28;20483;-70
2023/06/04 03:18:53;;;;;;;11.10;3.90;;;12.60;71.30;;;;;;5050711;28;20056;-70
2023/06/04 03:21:19;;;;;;;6.82;3.20;;;12.60;71.40;;;;;;5052631;28;20312;-69
2023/06/04 03:23:45;;;;;;;6.75;3.30;;;12.60;72.10;;;;;;5052064;28;20033;-70
2023/06/04 03:26:12;;;;;;;10.10;3.03;;;12.40;72.60;;;;;;5051946;28;20051;-70
2023/06/04 03:28:38;;;;;;;8.40;3.67;;;12.50;72.60;;;;;;5052079;28;20065;-69
2023/06/04 03:31:04;;;;;;;8.82;2.88;;;12.60;72.00;;;;;;5011970;28;1168554;-70
2023/06/04 03:33:30;;;;;;;11.65;3.30;;;12.60;72.00;;;;;;5054060;28;20061;-70
2023/06/04 03:35:58;;;;;;;6.78;3.05;;;12.60;72.20;;;;;;5053245;28;20403;-70
2023/06/04 03:38:25;;;;;;;6.88;2.90;;;12.60;73.00;;;;;;5052992;28;20036;-71
2023/06/04 03:40:52;;;;;;;5.72;2.72;;;12.50;73.00;;;;;;5052829;28;20094;-68
2023/06/04 03:43:19;;;;;;;5.47;2.77;;;12.60;73.30;;;;;;5053028;28;20398;-69
2023/06/04 03:45:44;;;;;;;5.28;2.47;;;12.60;72.80;;;;;;5053061;28;20554;-69
2023/06/04 03:48:10;;;;;;;4.97;2.83;;;12.80;72.60;;;;;;5053735;28;20112;-69
2023/06/04 03:50:36;;;;;;;7.53;3.05;;;12.70;72.80;;;;;;5052836;28;20033;-69
2023/06/04 03:53:04;;;;;;;6.40;3.53;;;12.70;73.40;;;;;;5052916;28;20059;-70
2023/06/04 03:55:31;;;;;;;7.18;2.88;;;12.60;74.20;;;;;;5053026;28;20033;-70
2023/06/04 03:57:57;;;;;;;6.70;2.63;;;12.70;73.70;;;;;;5051410;28;20439;-69
2023/06/04 04:00:23;;;;;;;9.65;2.03;;;12.70;73.10;;;;;;5053093;28;20029;-70
2023/06/04 04:02:49;;;;;;;7.55;1.67;;;12.90;72.40;;;;;;5052746;28;20455;-70
2023/06/04 04:05:15;;;;;;;6.85;2.30;;;12.90;72.50;;;;;;5051353;28;20048;-70
2023/06/04 04:07:41;;;;;;;5.78;2.20;;;13.00;72.90;;;;;;5052591;28;20036;-70
2023/06/04 04:10:07;;;;;;;5.13;2.30;;;13.00;73.50;;;;;;5052155;28;20033;-71
2023/06/04 04:12:33;;;;;;;4.47;2.00;;;12.90;74.10;;;;;;5052766;28;20029;-69
2023/06/04 04:14:59;;;;;;;3.22;1.73;;;12.80;74.10;;;;;;5051067;28;20086;-69
2023/06/04 04:17:25;;;;;;;8.18;2.00;;;13.00;71.90;;;;;;5052181;28;20040;-70
2023/06/04 04:19:51;;;;;;;3.05;1.45;;;13.00;71.50;;;;;;5052260;28;20037;-69
2023/06/04 04:22:17;;;;;;;2.50;1.42;;;13.10;70.60;;;;;;5052144;28;20168;-71
2023/06/04 04:24:43;;;;;;;4.22;2.40;;;13.20;70.50;;;;;;5052129;28;20486;-69
2023/06/04 04:27:13;;;;;;;4.30;1.50;;;13.20;70.40;;;;;;5052551;28;20071;-69
2023/06/04 04:29:39;;;;;;;2.25;1.27;;;13.20;70.70;;;;;;5052078;28;20374;-70
2023/06/04 04:32:10;;;;;;;6.55;1.65;;;13.20;70.20;;;;;;5052115;28;20043;-70
2023/06/04 04:34:39;;;;;;;3.10;1.20;;;13.20;70.20;;;;;;5050752;28;20382;-70
2023/06/04 04:37:08;;;;;;;;;;;13.10;70.70;;;;;;5052264;28;20544;-69
2023/06/04 04:39:35;;;;;;;4.90;1.40;;;13.20;70.80;;;;;;5052171;28;20354;-69
2023/06/04 04:42:01;;;;;;;5.68;1.63;;;13.10;70.70;;;;;;5051725;28;20033;-69
2023/06/04 04:44:27;;;;;;;4.03;1.23;;;13.10;71.20;;;;;;5051713;28;20095;-70
2023/06/04 04:46:53;;;;;;;2.40;1.25;;;13.20;71.30;;;;;;5051739;28;20341;-70
2023/06/04 04:49:18;;;;;;;2.20;1.25;;;13.20;71.30;;;;;;5051582;28;20029;-69
2023/06/04 04:51:44;;;;;;;5.15;1.35;;;13.20;71.80;;;;;;5051429;28;20455;-69
2023/06/04 04:54:10;;;;;;;3.28;1.45;;;13.20;71.30;;;;;;5051890;28;20491;-69
2023/06/04 04:56:35;;;;;;;3.53;1.35;;;13.20;71.70;;;;;;5051445;28;20147;-69
2023/06/04 04:59:01;;;;;;;2.83;1.38;;;13.20;72.30;;;;;;5051399;28;20037;-69
2023/06/04 05:01:27;;;;;;;6.25;3.40;;;13.30;72.20;;;;;;5050240;28;20037;-69
2023/06/04 05:03:53;;;;;;;2.35;1.17;;;13.30;72.30;;;;;;5051237;28;20032;-69
2023/06/04 05:06:19;;;;;;;1.55;0.80;;;13.40;72.60;;;;;;5051344;28;20475;-69
2023/06/04 05:08:45;;;;;;;3.80;1.20;;;13.50;72.40;;;;;;5051235;28;20390;-69
2023/06/04 05:11:11;;;;;;;3.08;2.10;;;13.50;72.40;;;;;;5051123;28;20044;-68
2023/06/04 05:13:36;;;;;;;1.98;1.10;;;13.60;72.80;;;;;;5050880;28;20033;-69
2023/06/04 05:16:11;;;;;;;2.20;1.17;;;13.60;72.60;;;;;;5049780;28;20117;-69
2023/06/04 05:18:44;;;;;;;5.97;1.25;;;13.70;72.30;;;;;;5051381;28;20052;-70
2023/06/04 05:21:11;;;;;;;4.65;1.00;;;13.70;72.10;;;;;;5050973;28;20040;-70
2023/06/04 05:23:38;;;;;;;1.48;1.13;;;13.80;72.00;;;;;;5050470;28;20041;-69
2023/06/04 05:26:04;;;;;;;2.33;1.27;;;13.80;72.10;;;;;;5050844;28;20044;-70
2023/06/04 05:28:33;;;;;;;2.95;1.00;;;13.90;71.80;;;;;;5050811;28;20520;-69
2023/06/04 05:30:59;;;;;;;1.58;1.10;;;13.90;71.70;;;;;;5049631;28;20437;-68
2023/06/04 05:33:30;;;;;;;1.30;1.00;;;14.10;71.50;;;;;;5051272;28;20031;-69
2023/06/04 05:35:57;;;;;;;2.22;1.10;;;14.20;70.80;;;;;;5050940;28;20037;-69
2023/06/04 05:38:27;;;;;;;1.95;1.42;;;14.30;70.50;;;;;;5050799;28;20029;-69
2023/06/04 05:40:55;;;;;;;1.15;0.90;;;14.30;70.60;;;;;;5050646;28;20029;-68
2023/06/04 05:43:21;;;;;;;5.72;1.13;;;14.30;71.00;;;;;;5050744;28;20029;-69
2023/06/04 05:45:47;;;;;;;2.13;1.25;;;14.40;71.50;;;;;;5050729;28;20366;-68
2023/06/04 05:48:13;;;;;;;4.72;1.23;;;14.50;71.00;;;;;;5051290;28;20025;-68
2023/06/04 05:50:39;;;;;;;1.80;1.20;;;14.50;71.80;;;;;;5050737;28;20025;-68
2023/06/04 05:53:08;;;;;;;1.98;1.10;;;14.60;71.20;;;;;;5050733;28;20479;-67
2023/06/04 05:55:33;;;;;;;3.45;1.33;;;14.80;70.90;;;;;;5050527;28;20380;-69
2023/06/04 05:57:59;;;;;;;0.90;0.85;;;14.90;70.50;;;;;;5049312;28;20036;-68
2023/06/04 06:00:25;;;;;;;5.20;1.15;;;15.10;69.80;;;;;;5050678;28;20040;-69
2023/06/04 06:02:52;;;;;;;2.33;0.98;;;15.30;68.50;;;;;;5050546;28;20041;-68
2023/06/04 06:05:19;;;;;;;3.70;1.00;;;15.40;68.10;;;;;;5050365;28;20033;-69
2023/06/04 06:07:45;;;;;;;3.75;1.00;;;15.50;67.70;;;;;;5050391;28;20360;-68
2023/06/04 06:10:11;;;;;;;2.58;1.13;;;15.50;67.00;;;;;;5050602;28;20116;-70
2023/06/04 06:12:37;;;;;;;3.08;1.23;;;15.50;67.10;;;;;;5050888;28;20025;-69
2023/06/04 06:15:03;;;;;;;3.05;1.20;;;15.60;67.00;;;;;;5050242;28;20071;-69
2023/06/04 06:17:29;;;;;;;1.50;1.00;;;15.70;66.80;;;;;;5050187;28;20033;-68
2023/06/04 06:19:55;;;;;;;4.10;1.30;;;15.80;66.80;;;;;;5050225;28;20394;-70
2023/06/04 06:22:22;;;;;;;1.15;0.90;;;15.80;66.10;;;;;;5050609;28;20471;-70
2023/06/04 06:24:50;;;;;;;1.88;1.20;;;16.00;66.10;;;;;;5048716;28;20116;-69
2023/06/04 06:27:17;;;;;;;3.20;1.00;;;16.30;65.50;;;;;;5050432;28;20495;-70
2023/06/04 06:29:43;;;;;;;0.85;0.70;;;16.50;64.70;;;;;;5049809;28;20049;-67
2023/06/04 06:32:12;;;;;;;2.60;1.10;;;16.70;65.00;;;;;;5050256;28;20029;-68
2023/06/04 06:34:38;;;;;;;1.23;1.00;;;16.80;64.50;;;;;;5050367;28;20067;-69
2023/06/04 06:37:04;;;;;;;1.95;1.00;;;16.80;64.60;;;;;;5054752;28;20057;-69
2023/06/04 06:39:32;;;;;;;1.38;0.90;;;16.80;64.80;;;;;;5054744;28;20455;-69
2023/06/04 06:41:58;;;;;;;3.45;1.00;;;16.80;64.20;;;;;;5054941;28;20471;-71
2023/06/04 06:44:23;;;;;;;2.70;0.90;;;16.80;64.00;;;;;;5055027;28;20036;-69
2023/06/04 06:46:49;;;;;;;2.08;1.10;;;16.80;64.60;;;;;;5053859;28;20041;-71
2023/06/04 06:49:15;;;;;;;4.68;1.08;;;16.80;64.10;;;;;;5052898;28;20048;-70
2023/06/04 06:51:41;;;;;;;2.95;0.93;;;16.80;64.40;;;;;;5053827;28;20037;-69
2023/06/04 06:54:09;;;;;;;2.25;1.00;;;16.90;64.10;;;;;;5054179;28;20033;-70
2023/06/04 06:56:34;;;;;;;4.80;1.20;;;16.80;64.40;;;;;;5053941;28;20087;-72
2023/06/04 06:59:00;;;;;;;1.88;1.33;;;16.80;64.30;;;;;;5053744;28;20048;-70
2023/06/04 07:01:26;;;;;;;1.95;0.90;;;17.00;64.10;;;;;;5053603;28;20045;-71
2023/06/04 07:03:52;;;;;;;1.65;1.00;;;17.40;63.70;;;;;;5053688;28;20033;-71
2023/06/04 07:06:17;;;;;;;3.28;1.30;;;17.90;63.10;;;;;;5054019;28;20378;-71
2023/06/04 07:08:43;;;;;;;1.67;1.20;;;17.90;62.50;;;;;;5053663;28;20414;-71
2023/06/04 07:11:11;;;;;;;1.65;1.00;;;18.00;62.70;;;;;;5053403;28;20109;-70
2023/06/04 07:13:38;;;;;;;3.35;1.80;;;18.10;62.40;;;;;;5052491;28;20143;-70
2023/06/04 07:16:04;;;;;;;2.35;1.13;;;18.20;62.40;;;;;;5053519;28;20033;-69
2023/06/04 07:18:30;;;;;;;8.63;1.70;;;18.30;61.90;;;;;;5053769;28;20036;-70
2023/06/04 07:20:55;;;;;;;2.00;1.23;;;18.30;61.50;;;;;;5053414;28;20033;-69
2023/06/04 07:23:21;;;;;;;2.38;1.38;;;18.40;61.50;;;;;;5053559;28;20022;-70
2023/06/04 07:25:47;;;;;;;5.75;1.23;;;18.50;61.70;;;;;;5053233;28;20037;-71
2023/06/04 07:28:12;;;;;;;3.13;1.10;;;18.60;60.80;;;;;;5053428;28;20060;-70
2023/06/04 07:30:38;;;;;;;2.83;1.42;;;18.60;60.40;;;;;;5053013;28;20056;-67
2023/06/04 07:33:06;;;;;;;1.98;1.05;;;18.70;60.10;;;;;;5053694;28;20020;-69
2023/06/04 07:35:32;;;;;;;1.30;1.15;;;18.70;59.80;;;;;;5053213;28;20040;-69
2023/06/04 07:37:57;;;;;;;2.10;1.17;;;18.70;60.00;;;;;;5052952;28;20037;-69
2023/06/04 07:40:23;;;;;;;2.28;1.05;;;18.70;59.90;;;;;;5053264;28;20029;-72
2023/06/04 07:42:49;;;;;;;4.18;1.05;;;18.80;60.10;;;;;;5053036;28;20368;-71
2023/06/04 07:45:15;;;;;;;5.03;1.10;;;18.90;60.50;;;;;;5053538;28;20013;-70
2023/06/04 07:47:41;;;;;;;2.58;1.30;;;19.20;60.60;;;;;;5052595;28;20041;-70
2023/06/04 07:50:07;;;;;;;6.10;1.13;;;19.40;59.50;;;;;;5052995;28;20114;-70
2023/06/04 07:52:33;;;;;;;1.48;0.80;;;20.00;58.20;;;;;;5052812;28;20124;-70
2023/06/04 07:54:59;;;;;;;4.03;1.17;;;20.30;57.30;;;;;;5052791;28;20175;-68
2023/06/04 07:57:25;;;;;;;1.88;1.05;;;20.30;57.00;;;;;;5053579;28;20112;-69
2023/06/04 07:59:51;;;;;;;2.42;1.20;;;20.50;57.10;;;;;;5051725;28;20104;-69
2023/06/04 08:02:17;;;;;;;4.75;1.00;;;20.70;57.00;;;;;;5052749;28;20060;-68
2023/06/04 08:04:44;;;;;;;1.27;0.90;;;20.90;56.40;;;;;;5052806;28;20040;-69
2023/06/04 08:07:09;;;;;;;3.97;1.38;;;21.00;56.50;;;;;;5052685;28;20335;-70
2023/06/04 08:09:35;;;;;;;2.88;1.10;;;21.20;55.20;;;;;;5053214;28;20024;-69
2023/06/04 08:12:01;;;;;;;3.10;1.10;;;21.20;54.70;;;;;;5052642;28;20104;-70
2023/06/04 08:14:27;;;;;;;4.97;1.63;;;21.20;54.50;;;;;;5051498;28;20400;-69
2023/06/04 08:16:55;;;;;;;4.38;1.23;;;21.20;54.50;;;;;;5052232;28;20102;-69
2023/06/04 08:19:21;;;;;;;1.58;1.25;;;21.50;54.00;;;;;;5052240;28;20041;-70
2023/06/04 08:21:47;;;;;;;2.97;1.30;;;21.80;55.00;;;;;;5052176;28;20033;-71
2023/06/04 08:24:13;;;;;;;3.78;1.08;;;22.10;53.80;;;;;;5052623;28;20108;-71
2023/06/04 08:26:39;;;;;;;1.88;1.00;;;22.20;54.10;;;;;;5052258;28;20061;-73
2023/06/04 08:29:05;;;;;;;2.17;1.00;;;22.50;53.20;;;;;;5052165;28;20075;-73
2023/06/04 08:31:31;;;;;;;3.10;0.93;;;22.50;52.40;;;;;;5051996;28;20048;-70
2023/06/04 08:33:57;;;;;;;1.92;1.00;;;23.20;52.80;;;;;;5051914;28;20037;-70
2023/06/04 08:36:23;;;;;;;6.07;1.90;;;23.90;50.20;;;;;;5052476;28;20031;-70
2023/06/04 08:38:53;;;;;;;3.33;1.60;;;24.60;48.20;;;;;;5050126;28;20481;-69
2023/06/04 08:41:27;;;;;;;2.25;1.00;;;25.60;47.10;;;;;;5031924;28;20040;-67
2023/06/04 08:44:01;;;;;;;1.10;0.80;;;26.60;47.90;;;;;;5030574;28;20037;-71
2023/06/04 08:46:28;;;;;;;1.65;0.88;;;27.10;44.50;;;;;;5031849;28;20480;-71
2023/06/04 08:48:59;;;;;;;0.95;0.60;;;28.00;43.80;;;;;;5032143;28;20032;-70
2023/06/04 08:51:25;;;;;;;3.45;1.02;;;28.70;42.00;;;;;;5032340;28;20040;-71
2023/06/04 08:53:53;;;;;;;7.95;0.98;;;29.10;42.30;;;;;;5031886;28;20029;-70
2023/06/04 08:56:22;;;;;;;1.95;1.08;;;29.70;40.20;;;;;;5030760;28;20456;-70
2023/06/04 08:58:47;;;;;;;1.63;1.05;;;30.00;38.80;;;;;;5031015;28;20041;-70
2023/06/04 09:01:14;;;;;;;2.03;1.20;;;30.70;37.50;;;;;;5031510;28;20091;-68
2023/06/04 09:03:40;;;;;;;1.35;0.65;;;31.10;36.10;;;;;;5031465;28;20321;-69
2023/06/04 09:06:07;;;;;;;1.60;0.90;;;30.80;35.40;;;;;;5032043;28;20116;-69
2023/06/04 09:08:36;;;;;;;2.47;1.10;;;30.60;33.10;;;;;;5030522;28;20396;-68
2023/06/04 09:11:07;;;;;;;1.27;0.73;;;30.40;33.90;;;;;;5031600;28;20361;-70
2023/06/04 09:13:35;;;;;;;0.60;0.50;;;29.80;34.30;;;;;;5031556;28;20392;-70
2023/06/04 09:16:02;;;;;;;1.35;0.70;;;30.00;33.90;;;;;;5031370;28;20038;-68
2023/06/04 09:18:28;;;;;;;2.40;0.60;;;29.20;34.40;;;;;;5031795;28;20029;-69
2023/06/04 09:21:07;;;;;;;7.88;1.55;;;30.30;35.80;;;;;;5031076;28;20109;-74
2023/06/04 09:23:47;;;;;;;1.52;0.80;;;30.70;34.70;;;;;;5031389;28;20136;-70
2023/06/04 09:26:13;;;;;;;1.13;0.80;;;30.80;34.80;;;;;;5031347;28;20033;-69
2023/06/04 09:28:45;;;;;;;2.58;0.90;;;29.90;33.90;;;;;;5031028;28;20406;-70
2023/06/04 09:31:17;;;;;;;1.77;0.90;;;28.50;34.80;;;;;;5029975;28;20124;-70
2023/06/04 09:33:50;;;;;;;2.22;0.93;;;28.50;36.30;;;;;;5031039;28;20083;-70
2023/06/04 09:36:16;;;;;;;1.85;1.20;;;28.50;35.60;;;;;;5031460;28;20442;-69
2023/06/04 09:38:42;;;;;;;4.90;1.55;;;28.40;35.90;;;;;;5030907;28;20041;-69
2023/06/04 09:41:12;;;;;;;1.95;1.05;;;28.30;35.90;;;;;;5030802;28;20026;-69
2023/06/04 09:43:38;;;;;;;1.90;0.90;;;28.00;36.00;;;;;;5031170;28;20083;-69
2023/06/04 09:46:12;;;;;;;1.55;0.90;;;27.90;36.70;;;;;;5031128;28;20040;-70
2023/06/04 09:48:39;;;;;;;4.75;1.30;;;27.80;36.40;;;;;;5030721;28;20486;-69
2023/06/04 09:51:15;;;;;;;3.70;1.27;;;27.50;37.10;;;;;;5031234;28;20029;-69
2023/06/04 09:53:41;;;;;;;3.88;0.80;;;27.30;37.20;;;;;;5030728;28;20060;-69
2023/06/04 09:56:08;;;;;;;2.78;1.17;;;27.20;37.30;;;;;;5030638;28;20344;-69
2023/06/04 09:58:35;;;;;;;3.97;0.80;;;26.90;37.70;;;;;;5030497;28;20037;-69
2023/06/04 10:01:03;;;;;;;5.97;1.13;;;27.10;36.90;;;;;;5030543;28;20055;-69
2023/06/04 10:03:33;;;;;;;2.17;0.82;;;26.90;36.70;;;;;;5030813;28;20021;-69
2023/06/04 10:06:02;;;;;;;16.00;3.15;;;26.60;37.40;;;;;;5030438;28;20025;-69
2023/06/04 10:08:30;;;;;;;2.22;0.80;;;26.40;37.30;;;;;;5030386;28;20026;-70
2023/06/04 10:10:57;;;;;;;;;;;26.50;38.60;;;;;;5030810;28;20025;-69
2023/06/04 10:13:27;;;;;;;7.40;1.30;;;26.60;38.70;;;;;;5030320;28;20343;-68
2023/06/04 10:15:53;;;;;;;0.98;0.85;;;26.50;39.20;;;;;;5030216;28;20474;-69
2023/06/04 10:18:19;;;;;;;4.88;1.25;;;26.50;38.80;;;;;;5029621;28;20123;-70
2023/06/04 10:20:45;;;;;;;1.73;1.00;;;26.40;40.50;;;;;;5030422;28;20026;-70
2023/06/04 10:23:12;;;;;;;2.85;0.85;;;26.10;39.10;;;;;;5029273;28;20045;-68
2023/06/04 10:25:38;;;;;;;2.80;0.80;;;26.20;38.40;;;;;;5030362;28;20167;-69
2023/06/04 10:28:04;;;;;;;2.33;1.08;;;26.10;38.40;;;;;;5030262;28;20503;-69
2023/06/04 10:30:30;;;;;;;2.70;1.00;;;26.10;38.90;;;;;;5030558;28;20045;-70
2023/06/04 10:32:57;;;;;;;4.07;1.08;;;26.20;39.70;;;;;;5030354;28;20041;-69
2023/06/04 10:35:35;;;;;;;2.03;0.80;;;26.00;39.30;;;;;;5030454;28;20030;-69
2023/06/04 10:38:09;;;;;;;2.45;1.55;;;25.90;40.00;;;;;;5030231;28;20057;-68
2023/06/04 10:40:36;;;;;;;1.15;0.80;;;25.90;39.40;;;;;;5030361;28;20040;-69
2023/06/04 10:43:08;;;;;;;0.77;0.77;;;25.90;38.80;;;;;;5029884;28;20340;-68
2023/06/04 10:45:34;;;;;;;1.77;0.70;;;25.90;39.50;;;;;;5030411;28;20025;-69
2023/06/04 10:48:05;;;;;;;2.60;1.00;;;25.80;38.40;;;;;;5030012;28;20034;-71
2023/06/04 10:50:35;;;;;;;0.90;0.75;;;25.70;38.80;;;;;;5030128;28;20042;-70
2023/06/04 10:53:05;;;;;;;2.03;0.70;;;25.80;38.70;;;;;;5030163;28;20029;-70
2023/06/04 10:55:31;;;;;;;3.92;1.13;;;25.80;38.60;;;;;;5028931;28;20045;-68
2023/06/04 10:58:01;;;;;;;5.95;2.85;;;25.80;38.80;;;;;;5029865;28;20052;-70
2023/06/04 11:00:41;;;;;;;5.03;1.02;;;25.80;38.30;;;;;;5030524;28;20033;-70
2023/06/04 11:03:08;;;;;;;4.00;1.63;;;25.80;38.60;;;;;;5030279;28;20363;-71
2023/06/04 11:05:35;;;;;;;4.00;1.02;;;25.70;38.60;;;;;;5029814;28;20406;-70
2023/06/04 11:08:02;;;;;;;2.90;1.13;;;25.80;38.60;;;;;;5030323;28;20029;-71
2023/06/04 11:10:33;;;;;;;1.60;1.05;;;25.80;38.30;;;;;;5029896;28;20037;-71
2023/06/04 11:12:59;;;;;;;1.67;0.95;;;25.80;37.70;;;;;;5029837;28;20384;-71
2023/06/04 11:15:25;;;;;;;3.33;0.80;;;25.90;38.00;;;;;;5030642;28;20029;-70
2023/06/04 11:17:52;;;;;;;1.48;0.90;;;25.90;37.70;;;;;;5029631;28;20459;-70
2023/06/04 11:20:19;;;;;;;7.07;1.27;;;25.50;36.50;;;;;;5029515;28;20034;-68
2023/06/04 11:22:59;;;;;;;2.13;1.10;;;25.40;38.10;;;;;;5032646;28;20531;-70
2023/06/04 11:25:26;;;;;;;4.68;1.30;;;25.20;36.80;;;;;;5033499;28;20040;-71
2023/06/04 11:27:57;;;;;;;3.25;1.25;;;25.30;38.10;;;;;;5033314;28;20061;-71
2023/06/04 11:30:24;;;;;;;2.33;1.00;;;25.40;37.00;;;;;;5033559;28;20052;-71
2023/06/04 11:32:50;;;;;;;2.83;0.93;;;25.50;37.10;;;;;;5033168;28;20033;-72
2023/06/04 11:35:16;;;;;;;2.40;0.90;;;25.50;37.50;;;;;;5033206;28;20040;-70
2023/06/04 11:37:52;;;;;;;2.08;1.13;;;25.60;37.00;;;;;;5033089;28;20034;-71
2023/06/04 11:40:19;;;;;;;1.38;0.80;;;25.60;37.40;;;;;;5032760;28;20029;-71
2023/06/04 11:42:46;;;;;;;2.70;0.98;;;25.70;36.90;;;;;;5033362;28;20025;-72
2023/06/04 11:45:17;;;;;;;2.03;0.75;;;25.60;36.60;;;;;;5032227;28;20359;-72
2023/06/04 11:47:56;;;;;;;0.68;0.68;;;25.60;35.30;;;;;;5032866;28;20041;-71
2023/06/04 11:50:23;;;;;;;1.33;0.80;;;25.60;35.70;;;;;;5032659;28;20041;-71
2023/06/04 11:52:49;;;;;;;2.63;0.70;;;25.60;35.00;;;;;;5032693;28;20486;-71
2023/06/04 11:55:20;;;;;;;1.83;0.93;;;25.10;35.40;;;;;;5032607;28;20034;-69
2023/06/04 11:57:46;;;;;;;2.08;1.20;;;25.00;34.70;;;;;;5032304;28;20017;-69
2023/06/04 12:00:12;;;;;;;1.20;0.90;;;25.00;35.30;;;;;;5033018;28;20124;-69
2023/06/04 12:02:48;;;;;;;1.02;0.80;;;25.10;36.70;;;;;;5032517;28;20025;-70
2023/06/04 12:05:15;;;;;;;4.00;0.82;;;25.20;36.20;;;;;;5032386;28;20030;-70
2023/06/04 12:07:41;;;;;;;1.92;0.80;;;25.30;37.00;;;;;;5032767;28;20068;-72
2023/06/04 12:10:11;;;;;;;1.80;0.82;;;25.30;36.70;;;;;;5033103;28;20029;-72
2023/06/04 12:12:37;;;;;;;2.50;0.90;;;25.40;36.60;;;;;;5032951;28;20029;-69
2023/06/04 12:15:05;;;;;;;15.35;9.75;;;25.20;36.40;;;;;;5031613;28;20121;-70
2023/06/04 12:17:32;;;;;;;6.85;1.75;;;25.20;36.50;;;;;;5032456;28;20080;-70
2023/06/04 12:19:58;;;;;;;3.45;0.80;;;25.20;36.80;;;;;;5032426;28;20109;-72
2023/06/04 12:22:25;;;;;;;1.33;1.02;;;25.40;36.70;;;;;;5032208;28;20530;-71
2023/06/04 12:24:55;;;;;;;5.75;1.13;;;25.40;35.80;;;;;;5032115;28;20021;-71
2023/06/04 12:27:23;;;;;;;0.85;0.80;;;25.30;35.50;;;;;;5031760;28;20422;-70
2023/06/04 12:30:04;;;;;;;1.60;1.05;;;25.40;35.60;;;;;;5032087;28;20073;-71
2023/06/04 12:32:29;;;;;;;2.42;1.15;;;25.30;36.30;;;;;;5031237;28;20022;-72
2023/06/04 12:34:55;;;;;;;11.85;1.27;;;25.40;36.30;;;;;;5031960;28;20095;-71
2023/06/04 12:37:22;;;;;;;1.33;0.90;;;25.20;36.00;;;;;;5031366;28;20044;-72
2023/06/04 12:39:48;;;;;;;1.60;0.87;;;25.00;36.20;;;;;;5051815;28;20112;-72
2023/06/04 12:42:14;;;;;;;1.17;0.90;;;25.00;36.30;;;;;;5053260;28;20108;-72
2023/06/04 12:44:40;;;;;;;1.90;1.08;;;25.10;36.90;;;;;;5052877;28;20093;-73